Time;durP1;ratioP1;P1;durP2;ratioP2;P2;SDS_P1;SDS_P2;PMS_P1;PMS_P2;Temp;Humidity;BMP_temperature;BMP_pressure;BME280_temperature;BME280_humidity;BME280_pressure;Samples;Min_cycle;Max_cycle;Signal;HPM_P1;HPM_P2
2022/01/01 00:02:15;;;;;;;31.12;8.38;;;;;;;21.39;47.61;100701.53;4459189;32;20573;-71
2022/01/01 00:04:42;;;;;;;32.33;9.88;;;;;;;21.58;47.22;100713.34;4464418;32;20040;-71
2022/01/01 00:07:09;;;;;;;43.15;14.45;;;;;;;21.67;46.99;100719.63;4460483;32;20529;-71
2022/01/01 00:09:36;;;;;;;45.17;14.75;;;;;;;21.85;46.67;100717.63;4458845;32;20571;-71
2022/01/01 00:12:02;;;;;;;48.00;14.65;;;;;;;21.58;47.37;100719.88;4456814;32;20459;-71
2022/01/01 00:14:29;;;;;;;50.35;14.55;;;;;;;21.66;47.35;100715.19;4448208;32;20088;-71
2022/01/01 00:16:55;;;;;;;39.00;12.77;;;;;;;21.57;47.79;100718.28;4451717;32;20067;-72
2022/01/01 00:19:21;;;;;;;41.65;13.27;;;;;;;21.14;48.52;100718.87;4449561;32;20367;-71
2022/01/01 00:21:47;;;;;;;40.72;11.48;;;;;;;21.41;48.02;100710.41;4438175;32;20152;-71
2022/01/01 00:24:12;;;;;;;32.72;9.68;;;;;;;21.69;47.56;100708.44;4452249;32;20777;-71
2022/01/01 00:26:38;;;;;;;38.00;9.43;;;;;;;21.50;48.08;100695.88;4451267;32;20040;-71
2022/01/01 00:29:04;;;;;;;36.47;8.73;;;;;;;21.49;48.06;100679.22;4451070;32;20100;-71
2022/01/01 00:31:30;;;;;;;23.67;7.50;;;;;;;21.14;48.78;100687.41;4448624;32;20081;-71
2022/01/01 00:33:57;;;;;;;30.65;8.13;;;;;;;21.55;48.44;100680.00;4452722;32;20032;-71
2022/01/01 00:36:23;;;;;;;31.77;7.28;;;;;;;21.59;48.28;100669.09;4449391;32;21034;-71
2022/01/01 00:38:49;;;;;;;21.95;7.47;;;;;;;21.26;49.21;100660.41;4447350;32;20045;-71
2022/01/01 00:41:14;;;;;;;24.23;6.72;;;;;;;21.40;48.99;100663.06;4450567;32;20086;-71
2022/01/01 00:43:40;;;;;;;21.92;6.37;;;;;;;21.37;49.19;100655.50;4450641;32;20045;-71
2022/01/01 00:46:05;;;;;;;23.35;6.75;;;;;;;21.26;49.27;100658.31;4450385;32;20464;-71
2022/01/01 00:48:31;;;;;;;34.15;7.22;;;;;;;20.94;50.32;100665.44;4448126;32;20072;-71
2022/01/01 00:50:57;;;;;;;27.42;7.37;;;;;;;21.20;49.80;100654.63;4452407;32;20465;-71
2022/01/01 00:53:23;;;;;;;25.85;7.40;;;;;;;21.34;49.67;100647.94;4453120;32;20434;-71
2022/01/01 00:55:48;;;;;;;27.87;7.60;;;;;;;21.70;48.64;100640.47;4451930;32;20060;-71
2022/01/01 00:58:14;;;;;;;26.15;7.00;;;;;;;21.65;48.79;100655.56;4450685;32;20124;-71
2022/01/01 01:00:41;;;;;;;23.08;7.22;;;;;;;21.42;49.15;100651.09;4448443;32;20033;-71
2022/01/01 01:03:08;;;;;;;35.70;7.80;;;;;;;21.78;48.57;100647.28;4449767;32;20040;-71
2022/01/01 01:05:34;;;;;;;27.95;7.78;;;;;;;22.14;48.15;100646.28;4452257;32;20071;-71
2022/01/01 01:08:00;;;;;;;30.65;7.57;;;;;;;21.84;48.50;100639.47;4450637;32;20068;-71
2022/01/01 01:10:25;;;;;;;25.33;7.72;;;;;;;21.77;48.86;100642.84;4449506;32;20060;-71
2022/01/01 01:12:53;;;;;;;23.00;7.78;;;;;;;21.68;49.09;100637.34;4449988;32;20052;-71
2022/01/01 01:15:18;;;;;;;27.10;7.80;;;;;;;21.60;49.52;100631.34;4449064;32;20029;-71
2022/01/01 01:17:49;;;;;;;27.52;7.90;;;;;;;21.63;49.47;100623.81;4447506;32;20131;-71
2022/01/01 01:20:16;;;;;;;28.42;8.30;;;;;;;21.70;49.61;100629.03;4448563;32;20551;-71
2022/01/01 01:22:42;;;;;;;23.27;7.32;;;;;;;21.47;50.11;100651.09;4451301;32;20055;-71
2022/01/01 01:25:09;;;;;;;27.85;7.78;;;;;;;21.44;50.24;100637.03;4450988;32;20068;-71
2022/01/01 01:27:36;;;;;;;20.27;7.12;;;;;;;21.17;50.92;100641.34;4448684;32;20038;-71
2022/01/01 01:30:06;;;;;;;25.95;7.15;;;;;;;21.51;50.32;100633.69;4447833;32;20086;-71
2022/01/01 01:32:32;;;;;;;26.15;7.85;;;;;;;21.57;50.24;100618.06;4451169;32;20405;-71
2022/01/01 01:34:58;;;;;;;24.98;8.30;;;;;;;21.35;50.74;100635.19;4451785;32;20059;-71
2022/01/01 01:37:23;;;;;;;23.15;7.37;;;;;;;21.48;50.23;100631.84;4451980;32;20076;-71
2022/01/01 01:39:49;;;;;;;25.77;8.25;;;;;;;21.50;50.24;100638.59;4449975;32;20056;-71
2022/01/01 01:42:15;;;;;;;29.08;7.85;;;;;;;21.80;49.52;100638.16;4450288;32;20079;-71
2022/01/01 01:44:44;;;;;;;29.73;8.18;;;;;;;21.65;49.99;100624.84;4449916;32;20499;-71
2022/01/01 01:47:15;;;;;;;21.98;6.37;;;;;;;21.70;49.90;100629.78;4446326;32;20437;-71
2022/01/01 01:49:43;;;;;;;16.95;6.62;;;;;;;21.73;49.69;100613.66;4451818;32;20036;-71
2022/01/01 01:52:09;;;;;;;27.40;6.40;;;;;;;22.26;48.64;100618.38;4450675;32;20040;-71
2022/01/01 01:54:35;;;;;;;19.05;6.37;;;;;;;21.89;49.24;100615.00;4453892;32;20029;-71
2022/01/01 01:57:02;;;;;;;25.05;7.62;;;;;;;21.97;48.98;100633.25;4448210;32;20410;-72
2022/01/01 01:59:28;;;;;;;25.58;6.90;;;;;;;22.06;48.60;100610.81;4451923;32;20077;-71
2022/01/01 02:01:55;;;;;;;20.75;6.95;;;;;;;21.68;49.32;100620.94;4448050;32;20057;-72
2022/01/01 02:04:21;;;;;;;24.10;7.10;;;;;;;21.96;48.77;100623.09;4446196;32;20041;-71
2022/01/01 02:06:48;;;;;;;19.15;7.05;;;;;;;22.28;48.13;100615.78;4451503;32;20193;-71
2022/01/01 02:09:15;;;;;;;21.15;7.62;;;;;;;22.64;47.28;100606.87;4448569;32;20497;-72
2022/01/01 02:11:41;;;;;;;16.85;6.50;;;;;;;22.23;48.00;100608.75;4436592;32;20100;-71
2022/01/01 02:19:56;;;;;;;20.62;8.63;;;;;;;22.56;47.27;100607.94;3979966;32;15023292;-71
2022/01/01 02:22:23;;;;;;;18.23;7.20;;;;;;;22.76;46.63;100621.97;4438078;32;20450;-71
2022/01/01 02:24:48;;;;;;;21.48;7.03;;;;;;;22.50;47.44;100610.84;4438577;32;20121;-71
2022/01/01 02:27:15;;;;;;;19.40;6.82;;;;;;;22.51;47.21;100608.72;4435014;32;20168;-71
2022/01/01 02:29:41;;;;;;;17.35;7.55;;;;;;;23.03;46.13;100618.22;4435612;32;20026;-71
2022/01/01 02:32:09;;;;;;;20.30;7.75;;;;;;;22.91;46.25;100619.59;4434566;32;20075;-71
2022/01/01 02:34:35;;;;;;;20.10;7.90;;;;;;;23.07;45.93;100631.00;4433890;32;20056;-71
2022/01/01 02:37:02;;;;;;;19.52;7.93;;;;;;;22.68;46.71;100615.22;4433898;32;20305;-71
2022/01/01 02:39:28;;;;;;;20.20;7.45;;;;;;;22.75;46.50;100626.94;4436219;32;20073;-72
2022/01/01 02:41:55;;;;;;;23.48;9.02;;;;;;;22.75;46.40;100631.91;4432888;32;20104;-71
2022/01/01 02:44:24;;;;;;;23.30;9.23;;;;;;;22.67;46.43;100634.53;4435879;32;20056;-71
2022/01/01 02:46:54;;;;;;;23.12;8.70;;;;;;;23.05;46.04;100629.97;4434405;32;20085;-72
2022/01/01 02:49:19;;;;;;;22.95;9.65;;;;;;;23.00;46.27;100628.69;4433596;32;20046;-71
2022/01/01 02:51:45;;;;;;;24.48;9.95;;;;;;;22.51;47.16;100623.87;4436842;32;20560;-72
2022/01/01 02:54:10;;;;;;;20.52;9.75;;;;;;;22.56;47.03;100628.03;4434161;32;20209;-71
2022/01/01 02:56:37;;;;;;;26.05;10.02;;;;;;;22.72;46.48;100615.72;4431545;32;20036;-71
2022/01/01 02:59:03;;;;;;;19.58;9.52;;;;;;;22.93;46.25;100620.63;4431906;32;20097;-71
2022/01/01 03:01:29;;;;;;;21.50;9.75;;;;;;;22.64;46.93;100606.13;4430727;32;20638;-71
2022/01/01 03:03:55;;;;;;;20.60;9.80;;;;;;;22.95;46.28;100600.03;4430743;32;20073;-71
2022/01/01 03:06:22;;;;;;;19.48;8.95;;;;;;;22.58;46.85;100605.34;4437972;32;20051;-71
2022/01/01 03:08:50;;;;;;;22.67;9.43;;;;;;;22.81;46.42;100601.09;4431216;32;20081;-71
2022/01/01 03:11:17;;;;;;;20.98;8.98;;;;;;;22.86;46.53;100586.72;4432746;32;20064;-71
2022/01/01 03:13:43;;;;;;;22.73;8.75;;;;;;;22.46;47.31;100575.09;4433402;32;20038;-71
2022/01/01 03:16:09;;;;;;;21.20;8.45;;;;;;;22.52;46.99;100573.78;4433785;32;20037;-71
2022/01/01 03:18:37;;;;;;;19.48;8.40;;;;;;;22.29;47.43;100569.41;4434519;32;20974;-71
2022/01/01 03:21:03;;;;;;;24.58;8.75;;;;;;;22.31;47.57;100569.66;4435199;32;20468;-71
2022/01/01 03:23:28;;;;;;;20.65;8.55;;;;;;;22.19;47.76;100573.06;4436784;32;20057;-71
2022/01/01 03:25:54;;;;;;;18.50;8.18;;;;;;;22.32;47.23;100576.16;4431621;32;20100;-71
2022/01/01 03:28:20;;;;;;;18.50;8.30;;;;;;;22.47;46.68;100570.91;4436741;32;20567;-71
2022/01/01 03:30:46;;;;;;;18.00;7.95;;;;;;;22.46;47.02;100586.56;4419741;32;20094;-71
2022/01/01 03:33:11;;;;;;;22.02;8.10;;;;;;;22.55;46.71;100580.59;4423795;32;20052;-71
2022/01/01 03:35:37;;;;;;;22.42;8.00;;;;;;;23.00;45.87;100581.97;4423803;32;20121;-71
2022/01/01 03:38:03;;;;;;;21.17;7.68;;;;;;;23.04;45.73;100566.03;4426132;32;20095;-71
2022/01/01 03:40:28;;;;;;;19.70;7.93;;;;;;;22.74;46.55;100570.09;4423606;32;20309;-71
2022/01/01 03:42:54;;;;;;;19.20;6.90;;;;;;;22.61;46.86;100567.00;4423968;32;20073;-71
2022/01/01 03:45:20;;;;;;;20.23;7.85;;;;;;;22.31;47.41;100561.06;4421942;32;20022;-71
2022/01/01 03:47:46;;;;;;;13.75;6.95;;;;;;;22.99;45.99;100554.59;4421407;32;20034;-71
2022/01/01 03:50:11;;;;;;;16.05;7.10;;;;;;;22.73;46.22;100552.09;4425022;32;20060;-71
2022/01/01 03:52:42;;;;;;;21.45;7.55;;;;;;;22.93;45.87;100540.28;4424023;32;20441;-71
2022/01/01 03:55:10;;;;;;;19.77;6.90;;;;;;;22.97;45.60;100558.00;4423295;32;20033;-71
2022/01/01 03:57:36;;;;;;;18.02;6.40;;;;;;;22.63;46.58;100544.31;4421789;32;20022;-72
2022/01/01 04:00:06;;;;;;;21.80;6.85;;;;;;;23.02;45.54;100542.84;4421432;32;20132;-71
2022/01/01 04:02:32;;;;;;;18.70;6.40;;;;;;;23.07;45.41;100539.16;4423906;32;20034;-71
2022/01/01 04:04:58;;;;;;;18.60;6.20;;;;;;;22.74;45.60;100518.44;4422758;32;20140;-71
2022/01/01 04:07:24;;;;;;;19.98;5.95;;;;;;;22.76;45.35;100519.47;4421672;32;20074;-71
2022/01/01 04:09:50;;;;;;;21.75;6.25;;;;;;;22.80;44.79;100499.13;4423195;32;20387;-71
2022/01/01 04:12:16;;;;;;;16.90;5.62;;;;;;;22.81;44.78;100497.81;4420482;32;20515;-71
2022/01/01 04:14:42;;;;;;;19.50;6.07;;;;;;;22.51;45.40;100505.50;4423865;32;20052;-71
2022/01/01 04:17:10;;;;;;;19.48;6.07;;;;;;;22.01;46.28;100485.53;4425409;32;20081;-71
2022/01/01 04:19:39;;;;;;;18.87;5.93;;;;;;;22.15;46.29;100486.56;4423721;32;20407;-71
2022/01/01 04:22:07;;;;;;;18.15;6.37;;;;;;;21.57;47.22;100494.91;4423542;32;20130;-71
2022/01/01 04:24:34;;;;;;;20.02;7.03;;;;;;;21.69;47.06;100485.03;4426111;32;20030;-71
2022/01/01 04:27:00;;;;;;;16.50;5.93;;;;;;;22.17;45.98;100486.78;4421279;32;20063;-71
2022/01/01 04:29:26;;;;;;;17.67;6.30;;;;;;;21.53;47.00;100476.44;4421654;32;20113;-71
2022/01/01 04:31:53;;;;;;;22.27;6.53;;;;;;;21.20;47.69;100482.91;4420853;32;20056;-71
2022/01/01 04:34:19;;;;;;;18.00;5.93;;;;;;;21.40;47.17;100479.03;4423630;32;20100;-71
2022/01/01 04:36:51;;;;;;;19.25;6.43;;;;;;;21.43;46.99;100470.19;4422619;32;20086;-71
2022/01/01 04:39:17;;;;;;;18.65;5.90;;;;;;;21.99;45.70;100467.31;4424682;32;20069;-71
2022/01/01 04:41:43;;;;;;;21.17;6.00;;;;;;;21.47;46.39;100470.72;4422900;32;20137;-71
2022/01/01 04:44:09;;;;;;;17.30;6.05;;;;;;;22.02;45.37;100469.91;4417764;32;20034;-71
2022/01/01 04:46:34;;;;;;;18.30;5.12;;;;;;;21.90;45.36;100467.59;4422488;32;20069;-71
2022/01/01 04:49:01;;;;;;;22.58;6.07;;;;;;;21.50;46.35;100463.94;4423928;32;20136;-71
2022/01/01 04:51:26;;;;;;;20.15;6.45;;;;;;;21.69;45.74;100447.00;4419943;32;20438;-71
2022/01/01 04:53:58;;;;;;;23.90;6.30;;;;;;;21.69;45.74;100462.09;4421778;32;20073;-71
2022/01/01 04:56:24;;;;;;;13.80;5.20;;;;;;;21.81;45.48;100456.41;4421091;32;20425;-71
2022/01/01 04:58:50;;;;;;;23.80;6.12;;;;;;;21.50;46.18;100461.06;4421173;32;20041;-71
2022/01/01 05:01:16;;;;;;;21.00;5.80;;;;;;;21.51;46.32;100471.22;4421857;32;20742;-71
2022/01/01 05:03:42;;;;;;;21.17;6.62;;;;;;;21.76;45.60;100460.06;4419865;32;20026;-71
2022/01/01 05:06:07;;;;;;;19.30;5.55;;;;;;;21.82;45.55;100457.97;4423527;32;20489;-71
2022/01/01 05:08:33;;;;;;;15.40;5.32;;;;;;;22.07;44.98;100468.31;4420914;32;20081;-71
2022/01/01 05:10:58;;;;;;;23.98;6.05;;;;;;;22.41;44.26;100469.78;4423920;32;20030;-72
2022/01/01 05:13:24;;;;;;;14.85;5.53;;;;;;;22.03;44.76;100467.81;4424802;32;20068;-71
2022/01/01 05:15:51;;;;;;;15.50;5.22;;;;;;;22.24;44.74;100449.78;4422540;32;20026;-71
2022/01/01 05:18:16;;;;;;;23.50;5.75;;;;;;;21.96;45.38;100443.34;4418207;32;20473;-71
2022/01/01 05:20:42;;;;;;;20.65;7.00;;;;;;;21.99;45.26;100430.81;4421905;32;20042;-71
2022/01/01 05:23:08;;;;;;;18.35;6.70;;;;;;;22.18;44.98;100431.81;4424430;32;20193;-71
2022/01/01 05:25:34;;;;;;;22.33;6.03;;;;;;;22.47;44.39;100441.88;4421067;32;20103;-71
2022/01/01 05:27:59;;;;;;;20.70;6.35;;;;;;;22.25;44.87;100428.41;4424188;32;20088;-71
2022/01/01 05:30:26;;;;;;;22.35;6.72;;;;;;;21.93;45.41;100417.84;4420773;32;20021;-71
2022/01/01 05:32:52;;;;;;;22.15;5.93;;;;;;;22.16;45.05;100416.44;4417763;32;20041;-71
2022/01/01 05:35:17;;;;;;;23.02;6.37;;;;;;;22.40;44.57;100417.38;4421136;32;20070;-71
2022/01/01 05:37:43;;;;;;;17.20;6.00;;;;;;;22.50;44.34;100426.50;4422592;32;20068;-71
2022/01/01 05:40:09;;;;;;;21.92;6.45;;;;;;;22.57;44.11;100408.72;4421209;32;20355;-71
2022/01/01 05:42:34;;;;;;;20.52;6.43;;;;;;;22.10;45.26;100405.00;4423527;32;20081;-71
2022/01/01 05:45:00;;;;;;;18.70;6.37;;;;;;;21.59;46.50;100406.41;4421780;32;20423;-71
2022/01/01 05:47:26;;;;;;;17.05;6.05;;;;;;;21.83;46.16;100370.72;4425066;32;20056;-71
2022/01/01 05:49:51;;;;;;;18.10;6.15;;;;;;;21.82;45.87;100354.81;4421950;32;20042;-71
2022/01/01 05:52:17;;;;;;;19.48;6.18;;;;;;;21.78;46.25;100363.69;4417333;32;20427;-71
2022/01/01 05:54:43;;;;;;;15.32;6.72;;;;;;;21.45;46.84;100375.97;4423039;32;20070;-71
2022/01/01 05:57:08;;;;;;;21.10;6.45;;;;;;;21.61;46.78;100346.53;4419169;32;20257;-71
2022/01/01 05:59:34;;;;;;;19.17;6.30;;;;;;;21.76;46.20;100346.25;4417760;32;20105;-71
2022/01/01 06:01:59;;;;;;;18.48;6.20;;;;;;;21.82;46.03;100340.50;4418344;32;20058;-71
2022/01/01 06:04:25;;;;;;;17.30;6.75;;;;;;;21.93;45.71;100341.25;4418371;32;20133;-71
2022/01/01 06:06:50;;;;;;;20.85;6.37;;;;;;;21.45;46.87;100350.19;4422311;32;20060;-71
2022/01/01 06:09:16;;;;;;;23.38;6.80;;;;;;;21.41;46.89;100338.22;4420351;32;20419;-71
2022/01/01 06:11:42;;;;;;;19.55;6.57;;;;;;;21.19;47.35;100326.03;4420506;32;20155;-71
2022/01/01 06:14:07;;;;;;;21.92;6.78;;;;;;;21.17;47.49;100314.34;4413160;32;20078;-71
2022/01/01 06:16:33;;;;;;;24.45;7.57;;;;;;;20.85;48.03;100315.88;4422047;32;20478;-71
2022/01/01 06:19:01;;;;;;;20.05;5.82;;;;;;;21.11;47.74;100313.56;4419400;32;20449;-71
2022/01/01 06:21:27;;;;;;;19.92;6.47;;;;;;;21.18;47.17;100324.47;4422976;32;20054;-71
2022/01/01 06:23:52;;;;;;;17.77;6.62;;;;;;;21.23;47.26;100318.75;4423851;32;20477;-71
2022/01/01 06:26:18;;;;;;;15.57;5.90;;;;;;;21.23;47.27;100315.13;4418765;32;20696;-71
2022/01/01 06:28:44;;;;;;;22.92;6.57;;;;;;;21.08;47.56;100314.59;4419717;32;20097;-71
2022/01/01 06:31:10;;;;;;;18.15;6.12;;;;;;;21.17;47.44;100323.69;4418735;32;20412;-71
2022/01/01 06:33:36;;;;;;;25.58;6.20;;;;;;;21.04;47.82;100286.25;4420733;32;20038;-71
2022/01/01 06:36:01;;;;;;;16.60;5.87;;;;;;;20.77;48.34;100274.81;4422932;32;20525;-71
2022/01/01 06:38:27;;;;;;;22.70;7.10;;;;;;;21.10;47.59;100289.88;4419620;32;20081;-71
2022/01/01 06:40:53;;;;;;;22.23;6.25;;;;;;;20.79;48.28;100266.47;4417768;32;20227;-71
2022/01/01 06:43:23;;;;;;;18.02;6.50;;;;;;;21.00;47.97;100296.41;4422784;32;20037;-71
2022/01/01 06:45:49;;;;;;;19.60;6.15;;;;;;;20.66;48.72;100286.22;4421946;32;20129;-70
2022/01/01 06:48:15;;;;;;;18.58;6.60;;;;;;;20.65;48.86;100278.97;4422145;32;20404;-70
2022/01/01 06:50:41;;;;;;;12.57;6.32;;;;;;;20.63;48.73;100258.66;4417975;32;20128;-70
2022/01/01 06:53:07;;;;;;;21.35;6.20;;;;;;;21.05;47.67;100261.28;4421877;32;20046;-71
2022/01/01 06:55:33;;;;;;;19.15;6.62;;;;;;;21.24;47.28;100282.31;4422032;32;20479;-71
2022/01/01 06:57:59;;;;;;;24.33;6.97;;;;;;;21.16;47.18;100281.28;4421150;32;20106;-71
2022/01/01 07:00:24;;;;;;;20.33;6.80;;;;;;;20.83;47.85;100287.78;4419896;32;20069;-71
2022/01/01 07:02:50;;;;;;;22.37;6.45;;;;;;;21.39;46.57;100283.56;4421574;32;20396;-71
2022/01/01 07:05:16;;;;;;;23.45;6.40;;;;;;;21.10;47.15;100297.69;4424512;32;20038;-71
2022/01/01 07:07:42;;;;;;;18.67;5.87;;;;;;;21.21;46.80;100281.31;4424307;32;20014;-71
2022/01/01 07:10:11;;;;;;;27.35;6.32;;;;;;;21.32;46.73;100294.78;4421606;32;20131;-71
2022/01/01 07:12:38;;;;;;;20.17;6.25;;;;;;;21.43;46.50;100289.84;4422265;32;20119;-71
2022/01/01 07:15:06;;;;;;;18.87;5.45;;;;;;;21.33;46.56;100297.13;4424964;32;20049;-71
2022/01/01 07:17:33;;;;;;;19.52;6.00;;;;;;;21.30;46.59;100298.16;4425903;32;20637;-71
2022/01/01 07:19:59;;;;;;;19.75;6.32;;;;;;;21.00;47.17;100285.75;4425703;32;20037;-71
2022/01/01 07:22:24;;;;;;;15.75;5.53;;;;;;;20.87;47.66;100282.59;4423385;32;20584;-71
2022/01/01 07:24:50;;;;;;;23.45;6.05;;;;;;;20.84;47.66;100289.38;4422688;32;20089;-71
2022/01/01 07:27:17;;;;;;;27.48;6.93;;;;;;;21.09;46.96;100305.50;4422058;32;20811;-71
2022/01/01 07:29:43;;;;;;;22.02;5.90;;;;;;;21.31;46.52;100311.19;4424720;32;20531;-71
2022/01/01 07:32:08;;;;;;;17.87;5.85;;;;;;;21.39;46.29;100317.94;4425683;32;20080;-71
2022/01/01 07:34:35;;;;;;;17.20;6.05;;;;;;;21.54;45.91;100298.37;4421635;32;20415;-71
2022/01/01 07:37:01;;;;;;;20.62;6.28;;;;;;;21.30;46.19;100281.00;4421875;32;20183;-71
2022/01/01 07:39:27;;;;;;;14.15;5.70;;;;;;;21.41;46.12;100271.59;4423039;32;20129;-71
2022/01/01 07:41:53;;;;;;;23.15;6.30;;;;;;;21.47;45.98;100261.69;4421496;32;20046;-71
2022/01/01 07:44:19;;;;;;;24.08;6.40;;;;;;;21.50;45.96;100277.03;4425808;32;20067;-71
2022/01/01 07:46:44;;;;;;;16.30;5.72;;;;;;;21.53;45.74;100264.53;4420883;32;20029;-71
2022/01/01 07:49:11;;;;;;;15.75;5.80;;;;;;;21.33;46.25;100264.88;4421307;32;20070;-71
2022/01/01 07:51:37;;;;;;;24.00;5.87;;;;;;;21.41;46.18;100292.44;4421654;32;20112;-71
2022/01/01 07:54:03;;;;;;;16.15;5.35;;;;;;;21.10;46.57;100283.38;4420405;32;20424;-70
2022/01/01 07:56:29;;;;;;;15.20;5.55;;;;;;;21.47;45.89;100284.59;4418481;32;20446;-70
2022/01/01 07:58:55;;;;;;;21.27;5.75;;;;;;;21.40;46.12;100281.50;4423466;32;20050;-70
2022/01/01 08:01:21;;;;;;;16.98;5.43;;;;;;;21.40;46.04;100295.81;4421818;32;20054;-70
2022/01/01 08:03:49;;;;;;;18.87;5.80;;;;;;;21.61;45.35;100300.72;4421427;32;20478;-70
2022/01/01 08:06:16;;;;;;;16.65;5.37;;;;;;;21.45;45.89;100295.78;4422224;32;20034;-70
2022/01/01 08:08:43;;;;;;;23.00;5.47;;;;;;;21.51;46.01;100295.81;4422413;32;20144;-70
2022/01/01 08:11:08;;;;;;;22.35;5.90;;;;;;;21.48;45.68;100300.47;4418323;32;20046;-70
2022/01/01 08:13:36;;;;;;;20.23;5.62;;;;;;;21.58;45.32;100313.22;4422180;32;20046;-70
2022/01/01 08:16:02;;;;;;;28.45;6.20;;;;;;;21.29;46.20;100308.06;4424766;32;20181;-70
2022/01/01 08:18:29;;;;;;;19.17;5.55;;;;;;;21.58;45.70;100315.28;4421966;32;20046;-71
2022/01/01 08:20:56;;;;;;;19.15;6.10;;;;;;;20.92;47.11;100316.13;4422755;32;20089;-70
2022/01/01 08:23:22;;;;;;;16.60;5.80;;;;;;;21.16;46.54;100322.13;4424655;32;20599;-70
2022/01/01 08:25:48;;;;;;;23.55;5.70;;;;;;;20.70;47.72;100310.41;4414350;32;20065;-70
2022/01/01 08:28:14;;;;;;;19.17;5.70;;;;;;;20.91;47.14;100294.56;4424103;32;20246;-70
2022/01/01 08:30:39;;;;;;;19.73;5.37;;;;;;;20.75;47.44;100295.34;4422643;32;20101;-70
2022/01/01 08:33:05;;;;;;;20.62;6.68;;;;;;;20.65;47.70;100274.00;4423758;32;20048;-70
2022/01/01 08:35:32;;;;;;;21.85;5.55;;;;;;;20.58;47.45;100288.81;4425648;32;20037;-70
2022/01/01 08:37:58;;;;;;;24.27;6.18;;;;;;;20.46;48.18;100272.94;4422739;32;20037;-70
2022/01/01 08:40:25;;;;;;;25.60;6.10;;;;;;;20.45;48.26;100282.84;4421142;32;20419;-70
2022/01/01 08:42:50;;;;;;;21.05;5.53;;;;;;;20.98;47.28;100258.94;4422504;32;20160;-70
2022/01/01 08:45:16;;;;;;;15.43;5.37;;;;;;;20.74;47.57;100267.25;4420250;32;20644;-70
2022/01/01 08:47:42;;;;;;;26.23;5.62;;;;;;;20.90;47.12;100255.03;4423665;32;20514;-70
2022/01/01 08:50:09;;;;;;;20.90;5.95;;;;;;;20.98;46.93;100265.44;4422914;32;20126;-70
2022/01/01 08:52:35;;;;;;;19.55;5.28;;;;;;;21.03;46.94;100270.41;4425829;32;20064;-70
2022/01/01 08:55:01;;;;;;;24.20;5.85;;;;;;;21.02;46.79;100276.62;4424481;32;20037;-70
2022/01/01 08:57:30;;;;;;;13.93;5.25;;;;;;;20.82;47.23;100291.97;4423614;32;20105;-70
2022/01/01 08:59:55;;;;;;;15.45;5.05;;;;;;;20.87;47.18;100274.03;4421723;32;20042;-70
2022/01/01 09:02:21;;;;;;;20.65;5.47;;;;;;;21.06;46.60;100272.22;4421911;32;20048;-70
2022/01/01 09:04:48;;;;;;;23.48;5.37;;;;;;;21.11;46.35;100268.53;4424357;32;20581;-70
2022/01/01 09:07:14;;;;;;;15.35;5.50;;;;;;;20.72;47.46;100278.44;4421129;32;20104;-70
2022/01/01 09:09:40;;;;;;;24.15;5.12;;;;;;;21.12;46.35;100272.19;4423415;32;20065;-72
2022/01/01 09:12:08;;;;;;;18.27;5.57;;;;;;;21.37;45.97;100269.03;4422159;32;20038;-71
2022/01/01 09:14:34;;;;;;;20.83;5.53;;;;;;;21.27;46.30;100258.38;4424815;32;20025;-70
2022/01/01 09:17:00;;;;;;;17.48;5.37;;;;;;;21.34;45.60;100249.25;4419371;32;20711;-70
2022/01/01 09:19:26;;;;;;;16.60;4.82;;;;;;;20.92;46.76;100250.34;4423173;32;20038;-70
2022/01/01 09:21:52;;;;;;;13.02;4.75;;;;;;;20.95;46.64;100235.03;4423025;32;20060;-70
2022/01/01 09:24:17;;;;;;;22.23;5.65;;;;;;;21.09;46.43;100236.84;4422423;32;20691;-70
2022/01/01 09:26:43;;;;;;;20.88;5.15;;;;;;;21.36;45.86;100238.81;4423505;32;20072;-70
2022/01/01 09:29:10;;;;;;;21.73;5.80;;;;;;;21.43;45.70;100238.31;4425160;32;20065;-70
2022/01/01 09:31:38;;;;;;;19.10;5.22;;;;;;;21.65;45.09;100248.88;4418106;32;20438;-70
2022/01/01 09:34:05;;;;;;;18.33;4.87;;;;;;;21.84;44.91;100237.66;4422373;32;20030;-70
2022/01/01 09:36:31;;;;;;;16.65;4.95;;;;;;;21.90;44.58;100236.28;4418994;32;20074;-70
2022/01/01 09:39:03;;;;;;;15.90;4.82;;;;;;;22.05;44.19;100241.66;4419484;32;20069;-70
2022/01/01 09:41:29;;;;;;;18.08;4.40;;;;;;;22.40;43.47;100225.28;4422831;32;20070;-70
2022/01/01 09:43:59;;;;;;;22.02;5.07;;;;;;;22.38;43.15;100233.66;4421131;32;20090;-71
2022/01/01 09:46:26;;;;;;;18.42;4.62;;;;;;;22.19;43.85;100224.16;4421843;32;20081;-71
2022/01/01 09:48:52;;;;;;;19.37;4.78;;;;;;;22.16;44.09;100242.41;4419656;32;20386;-71
2022/01/01 09:51:20;;;;;;;22.52;4.68;;;;;;;22.08;44.17;100267.19;4416447;32;20537;-71
2022/01/01 09:53:47;;;;;;;18.85;5.05;;;;;;;22.83;42.67;100263.53;4421564;32;20132;-71
2022/01/01 09:56:12;;;;;;;20.02;5.18;;;;;;;22.75;42.65;100279.00;4422411;32;20201;-71
2022/01/01 09:58:39;;;;;;;16.08;4.75;;;;;;;22.71;42.61;100284.28;4420011;32;20482;-71
2022/01/01 10:01:06;;;;;;;17.83;4.95;;;;;;;23.06;42.09;100282.13;4422247;32;20040;-71
2022/01/01 10:03:36;;;;;;;21.23;5.20;;;;;;;23.26;41.71;100275.19;4421283;32;20037;-71
2022/01/01 10:06:06;;;;;;;23.08;6.03;;;;;;;23.53;41.20;100274.09;4418833;32;20398;-71
2022/01/01 10:08:35;;;;;;;22.40;4.55;;;;;;;24.00;40.19;100274.59;4420081;32;20399;-71
2022/01/01 10:11:02;;;;;;;23.27;4.78;;;;;;;24.13;39.64;100266.06;4418930;32;20143;-71
2022/01/01 10:13:30;;;;;;;22.27;4.93;;;;;;;22.94;42.08;100268.41;4422556;32;20100;-71
2022/01/01 10:15:58;;;;;;;15.93;4.05;;;;;;;23.07;42.04;100257.09;4421177;32;20098;-71
2022/01/01 10:18:26;;;;;;;22.42;4.65;;;;;;;23.29;41.68;100269.12;4419459;32;20664;-71
2022/01/01 10:20:56;;;;;;;21.10;4.62;;;;;;;22.99;42.31;100274.13;4419618;32;20064;-71
2022/01/01 10:23:26;;;;;;;21.65;4.62;;;;;;;22.94;42.47;100277.03;4422465;32;20025;-71
2022/01/01 10:28:55;;;;;;;18.90;5.18;;;;;;;23.28;41.69;100284.03;4423507;32;20529;-71
2022/01/01 10:31:20;;;;;;;24.30;5.53;;;;;;;23.06;42.05;100267.78;4423062;32;20037;-71
2022/01/01 10:33:46;;;;;;;20.80;4.90;;;;;;;22.69;42.84;100272.53;4421196;32;20148;-71
2022/01/01 10:36:14;;;;;;;22.70;5.30;;;;;;;23.14;41.86;100279.47;4418904;32;20601;-71
2022/01/01 10:38:39;;;;;;;22.80;4.85;;;;;;;23.24;41.98;100287.22;4423531;32;20105;-71
2022/01/01 10:41:09;;;;;;;21.10;4.72;;;;;;;23.47;41.42;100300.00;4422627;32;20100;-71
2022/01/01 10:43:43;;;;;;;27.52;5.32;;;;;;;23.37;41.77;100300.91;4427722;32;20064;-71
2022/01/01 10:46:13;;;;;;;21.50;5.12;;;;;;;23.22;41.93;100295.53;4422857;32;20068;-71
2022/01/01 10:48:53;;;;;;;18.37;5.10;;;;;;;22.61;43.29;100288.78;4421756;32;20436;-71
2022/01/01 10:51:20;;;;;;;24.90;6.07;;;;;;;22.62;43.23;100294.00;4421080;32;20132;-71
2022/01/01 10:53:45;;;;;;;20.62;5.10;;;;;;;22.50;43.75;100275.31;4419462;32;20647;-71
2022/01/01 10:56:34;;;;;;;16.65;4.18;;;;;;;22.19;44.19;100281.47;4425474;32;20102;-71
2022/01/01 10:59:00;;;;;;;25.45;5.45;;;;;;;22.34;44.21;100281.13;4420853;32;20054;-71
2022/01/01 11:01:26;;;;;;;44.55;5.87;;;;;;;21.88;45.25;100279.03;4423955;32;20064;-70
2022/01/01 11:03:54;;;;;;;30.40;5.18;;;;;;;21.67;45.66;100287.13;4421883;32;20034;-70
2022/01/01 11:06:21;;;;;;;23.60;4.62;;;;;;;22.14;44.90;100272.88;4424359;32;20076;-70
2022/01/01 11:08:49;;;;;;;24.17;5.55;;;;;;;22.05;45.11;100253.91;4421485;32;20026;-70
2022/01/01 11:11:16;;;;;;;27.02;4.80;;;;;;;22.32;44.37;100252.19;4420871;32;20053;-70
2022/01/01 11:13:45;;;;;;;26.80;5.65;;;;;;;22.03;44.93;100252.91;4423058;32;20033;-70
2022/01/01 11:16:14;;;;;;;24.08;5.15;;;;;;;22.37;44.45;100242.78;4422461;32;20320;-70
2022/01/01 11:18:40;;;;;;;20.80;4.75;;;;;;;22.13;45.11;100231.22;4424592;32;20910;-70
2022/01/01 11:21:07;;;;;;;31.58;5.95;;;;;;;22.12;45.00;100238.25;4420516;32;20716;-70
2022/01/01 11:23:34;;;;;;;29.25;5.45;;;;;;;21.87;45.37;100253.78;4423895;32;20069;-70